Wetterdaten vom Dienstag, 11. Dezember 2018

Temperatur Taupunkt Windchill Luftfeuchte Luftdruck Solarstrahlung Regen ET
(Verdunstung von Wasser)
Wind
Max 2.3 °C
06:00
0.5 °C
06:35
2.2 °C
05:00
90%
03:30
1004.4 hPa
08:05
5 W/m²
08:15
8.8 km/h
04:35 km/h
Durchschnitt 1.7 °C 0 °C 1.5 °C 89% 1003.5 hPa 5 W/m² 0 mm 0 mm 4.5 km/h
Min 1.2 °C
01:20
-0.4 °C
01:20
-0.2 °C
04:35
88%
00:45
1002.9 hPa
01:10
0 km/h (Böe)
07:50 km/h
Zeit
00:00 1.5 °C -0.1 °C 1.5 °C 89% 1003.0 hPa 0 W/m² 0.0 mm 0.000 mm 2.2 km/h
00:05 1.5 °C -0.1 °C 1.5 °C 89% 1003.4 hPa 0 W/m² 0.0 mm 0.000 mm 2.1 km/h
00:10 1.4 °C -0.2 °C 1.4 °C 89% 1003.0 hPa 0 W/m² 0.0 mm 0.000 mm 2.4 km/h
00:15 1.4 °C -0.2 °C 1.4 °C 89% 1003.0 hPa 0 W/m² 0.0 mm 0.000 mm 2.1 km/h
00:20 1.4 °C -0.2 °C 1.4 °C 89% 1003.2 hPa 0 W/m² 0.0 mm 0.000 mm 3.4 km/h
00:25 1.4 °C -0.2 °C 1.4 °C 89% 1003.1 hPa 0 W/m² 0.0 mm 0.000 mm 3.1 km/h
00:30 1.4 °C -0.2 °C 1.4 °C 89% 1003.0 hPa 0 W/m² 0.0 mm 0.000 mm 3.6 km/h
00:35 1.5 °C -0.1 °C 1.5 °C 89% 1003.1 hPa 0 W/m² 0.0 mm 0.000 mm 5.3 km/h
00:40 1.6 °C -0.0 °C 1.6 °C 89% 1003.1 hPa 0 W/m² 0.0 mm 0.000 mm 5.9 km/h
00:45 1.5 °C -0.3 °C 1.5 °C 88% 1003.0 hPa 0 W/m² 0.0 mm 0.000 mm 5.0 km/h
00:50 1.4 °C -0.4 °C 1.4 °C 88% 1003.0 hPa 0 W/m² 0.0 mm 0.000 mm 5.5 km/h
00:55 1.4 °C -0.2 °C 1.4 °C 89% 1003.1 hPa 0 W/m² 0.0 mm 0.000 mm 4.1 km/h
01:00 1.3 °C -0.3 °C 1.3 °C 89% 1003.0 hPa 0 W/m² 0.0 mm 0.000 mm 5.6 km/h
01:05 1.3 °C -0.3 °C 1.3 °C 89% 1003.0 hPa 0 W/m² 0.0 mm 0.000 mm 5.6 km/h
01:10 1.3 °C -0.3 °C 0.3 °C 89% 1002.9 hPa 0 W/m² 0.0 mm 0.000 mm 7.4 km/h
01:15 1.3 °C -0.3 °C 1.3 °C 89% 1002.9 hPa 0 W/m² 0.0 mm 0.000 mm 3.9 km/h
01:20 1.2 °C -0.4 °C 1.2 °C 89% 1003.1 hPa 0 W/m² 0.0 mm 0.000 mm 5.4 km/h
01:25 1.3 °C -0.3 °C 1.3 °C 89% 1003.0 hPa 0 W/m² 0.0 mm 0.000 mm 4.6 km/h
01:30 1.3 °C -0.3 °C 1.3 °C 89% 1003.0 hPa 0 W/m² 0.0 mm 0.000 mm 6.0 km/h
01:35 1.3 °C -0.3 °C 1.3 °C 89% 1003.1 hPa 0 W/m² 0.0 mm 0.000 mm 4.7 km/h
01:40 1.3 °C -0.3 °C 1.3 °C 89% 1003.3 hPa 0 W/m² 0.0 mm 0.000 mm 3.3 km/h
01:45 1.3 °C -0.3 °C 1.3 °C 89% 1003.1 hPa 0 W/m² 0.0 mm 0.000 mm 3.2 km/h
01:50 1.3 °C -0.3 °C 1.3 °C 89% 1003.1 hPa 0 W/m² 0.0 mm 0.000 mm 2.2 km/h
01:55 1.4 °C -0.2 °C 1.4 °C 89% 1003.0 hPa 0 W/m² 0.0 mm 0.000 mm 3.3 km/h
02:00 1.4 °C -0.2 °C 1.4 °C 89% 1003.2 hPa 0 W/m² 0.0 mm 0.000 mm 2.8 km/h
02:05 1.4 °C -0.2 °C 1.4 °C 89% 1003.1 hPa 0 W/m² 0.0 mm 0.000 mm 4.4 km/h
02:10 1.6 °C -0.0 °C 1.6 °C 89% 1003.1 hPa 0 W/m² 0.0 mm 0.000 mm 5.0 km/h
02:15 1.6 °C -0.0 °C 1.5 °C 89% 1003.1 hPa 0 W/m² 0.0 mm 0.000 mm 6.5 km/h
02:20 1.6 °C -0.0 °C 1.6 °C 89% 1003.1 hPa 0 W/m² 0.0 mm 0.000 mm 5.1 km/h
02:25 1.5 °C -0.1 °C 1.5 °C 89% 1003.3 hPa 0 W/m² 0.0 mm 0.000 mm 5.7 km/h
02:30 1.4 °C -0.2 °C 1.4 °C 89% 1003.5 hPa 0 W/m² 0.0 mm 0.000 mm 4.4 km/h
02:35 1.4 °C -0.2 °C 1.4 °C 89% 1003.4 hPa 0 W/m² 0.0 mm 0.000 mm 4.8 km/h
02:40 1.4 °C -0.2 °C 1.4 °C 89% 1003.1 hPa 0 W/m² 0.0 mm 0.000 mm 5.1 km/h
02:45 1.3 °C -0.3 °C 1.3 °C 89% 1003.4 hPa 0 W/m² 0.0 mm 0.000 mm 3.0 km/h
02:50 1.3 °C -0.3 °C 1.3 °C 89% 1003.4 hPa 0 W/m² 0.0 mm 0.000 mm 3.3 km/h
02:55 1.3 °C -0.3 °C 1.3 °C 89% 1003.4 hPa 0 W/m² 0.0 mm 0.000 mm 4.9 km/h
03:00 1.3 °C -0.3 °C 1.3 °C 89% 1003.3 hPa 0 W/m² 0.0 mm 0.000 mm 4.3 km/h
03:05 1.3 °C -0.3 °C 1.3 °C 89% 1003.5 hPa 0 W/m² 0.0 mm 0.000 mm 2.4 km/h
03:10 1.3 °C -0.3 °C 1.3 °C 89% 1003.5 hPa 0 W/m² 0.0 mm 0.000 mm 3.9 km/h
03:15 1.3 °C -0.3 °C 1.3 °C 89% 1003.2 hPa 0 W/m² 0.0 mm 0.000 mm 4.7 km/h
03:20 1.3 °C -0.3 °C 1.3 °C 89% 1003.5 hPa 0 W/m² 0.0 mm 0.000 mm 3.4 km/h
03:25 1.3 °C -0.3 °C 1.3 °C 89% 1003.3 hPa 0 W/m² 0.0 mm 0.000 mm 5.0 km/h
03:30 1.3 °C -0.2 °C 1.3 °C 90% 1003.5 hPa 0 W/m² 0.0 mm 0.000 mm 3.5 km/h
03:35 1.4 °C -0.1 °C 1.4 °C 90% 1003.4 hPa 0 W/m² 0.0 mm 0.000 mm 3.7 km/h
03:40 1.4 °C -0.1 °C 1.4 °C 90% 1003.3 hPa 0 W/m² 0.0 mm 0.000 mm 5.2 km/h
03:45 1.5 °C 0.0 °C 1.5 °C 90% 1003.5 hPa 0 W/m² 0.0 mm 0.000 mm 6.3 km/h
03:50 1.6 °C -0.0 °C 1.6 °C 89% 1003.5 hPa 0 W/m² 0.0 mm 0.000 mm 6.1 km/h
03:55 1.7 °C 0.1 °C 1.4 °C 89% 1003.4 hPa 0 W/m² 0.0 mm 0.000 mm 6.7 km/h
04:00 1.7 °C 0.1 °C 1.7 °C 89% 1003.3 hPa 0 W/m² 0.0 mm 0.000 mm 6.0 km/h
04:05 1.8 °C 0.2 °C 0.8 °C 89% 1003.3 hPa 0 W/m² 0.0 mm 0.000 mm 7.4 km/h
04:10 1.9 °C 0.3 °C 1.9 °C 89% 1003.5 hPa 0 W/m² 0.0 mm 0.000 mm 5.9 km/h
04:15 1.9 °C 0.3 °C 1.8 °C 89% 1003.4 hPa 0 W/m² 0.0 mm 0.000 mm 6.5 km/h
04:20 1.9 °C 0.3 °C 0.7 °C 89% 1003.4 hPa 0 W/m² 0.0 mm 0.000 mm 7.6 km/h
04:25 1.9 °C 0.3 °C 0.1 °C 89% 1003.8 hPa 0 W/m² 0.0 mm 0.000 mm 8.3 km/h
04:30 2.0 °C 0.2 °C 1.3 °C 88% 1003.3 hPa 0 W/m² 0.0 mm 0.000 mm 7.1 km/h
04:35 2.1 °C 0.3 °C -0.2 °C 88% 1003.6 hPa 0 W/m² 0.0 mm 0.000 mm 8.8 km/h
04:40 2.1 °C 0.3 °C -0.2 °C 88% 1003.5 hPa 0 W/m² 0.0 mm 0.000 mm 8.8 km/h
04:45 2.1 °C 0.3 °C 2.1 °C 88% 1003.6 hPa 0 W/m² 0.0 mm 0.000 mm 6.2 km/h
04:50 2.1 °C 0.3 °C 2.1 °C 88% 1003.5 hPa 0 W/m² 0.0 mm 0.000 mm 4.8 km/h
04:55 2.1 °C 0.3 °C 2.1 °C 88% 1003.6 hPa 0 W/m² 0.0 mm 0.000 mm 6.0 km/h
05:00 2.2 °C 0.4 °C 2.2 °C 88% 1003.5 hPa 0 W/m² 0.0 mm 0.000 mm 4.4 km/h
05:05 2.2 °C 0.4 °C 2.1 °C 88% 1003.5 hPa 0 W/m² 0.0 mm 0.000 mm 6.5 km/h
05:10 2.2 °C 0.4 °C 0.2 °C 88% 1003.6 hPa 0 W/m² 0.0 mm 0.000 mm 8.5 km/h
05:15 2.2 °C 0.4 °C 2.2 °C 88% 1003.5 hPa 0 W/m² 0.0 mm 0.000 mm 5.7 km/h
05:20 2.2 °C 0.4 °C 2.2 °C 88% 1003.5 hPa 0 W/m² 0.0 mm 0.000 mm 4.9 km/h
05:25 2.2 °C 0.4 °C 2.2 °C 88% 1003.7 hPa 0 W/m² 0.0 mm 0.000 mm 4.3 km/h
05:30 2.1 °C 0.3 °C 2.1 °C 88% 1003.7 hPa 0 W/m² 0.0 mm 0.000 mm 5.7 km/h
05:35 2.2 °C 0.4 °C 2.2 °C 88% 1003.6 hPa 0 W/m² 0.0 mm 0.000 mm 4.6 km/h
05:40 2.2 °C 0.4 °C 2.2 °C 88% 1003.6 hPa 0 W/m² 0.0 mm 0.000 mm 5.7 km/h
05:45 2.2 °C 0.4 °C 2.2 °C 88% 1003.2 hPa 0 W/m² 0.0 mm 0.000 mm 4.9 km/h
05:50 2.2 °C 0.4 °C 2.2 °C 88% 1003.6 hPa 0 W/m² 0.0 mm 0.000 mm 5.7 km/h
05:55 2.2 °C 0.4 °C 2.2 °C 88% 1003.8 hPa 0 W/m² 0.0 mm 0.000 mm 5.3 km/h
06:00 2.2 °C 0.4 °C 2.2 °C 88% 1003.5 hPa 0 W/m² 0.0 mm 0.000 mm 5.7 km/h
06:05 2.2 °C 0.4 °C 2.2 °C 88% 1003.6 hPa 0 W/m² 0.0 mm 0.000 mm 4.2 km/h
06:10 2.2 °C 0.4 °C 2.2 °C 88% 1003.7 hPa 0 W/m² 0.0 mm 0.000 mm 3.3 km/h
06:15 2.2 °C 0.4 °C 2.2 °C 88% 1003.7 hPa 0 W/m² 0.0 mm 0.000 mm 5.8 km/h
06:20 2.1 °C 0.3 °C 2.1 °C 88% 1003.8 hPa 0 W/m² 0.0 mm 0.000 mm 6.3 km/h
06:25 2.1 °C 0.3 °C 2.1 °C 88% 1003.8 hPa 0 W/m² 0.0 mm 0.000 mm 3.4 km/h
06:30 2.1 °C 0.3 °C 2.1 °C 88% 1003.8 hPa 0 W/m² 0.0 mm 0.000 mm 3.5 km/h
06:35 2.1 °C 0.5 °C 2.1 °C 89% 1003.8 hPa 0 W/m² 0.0 mm 0.000 mm 3.0 km/h
06:40 2.0 °C 0.2 °C 2.0 °C 88% 1004.0 hPa 0 W/m² 0.0 mm 0.000 mm 3.7 km/h
06:45 2.0 °C 0.2 °C 2.0 °C 88% 1003.8 hPa 0 W/m² 0.0 mm 0.000 mm 3.2 km/h
06:50 1.9 °C 0.1 °C 1.9 °C 88% 1003.9 hPa 0 W/m² 0.0 mm 0.000 mm 4.6 km/h
06:55 1.9 °C 0.3 °C 1.9 °C 89% 1003.9 hPa 0 W/m² 0.0 mm 0.000 mm 5.9 km/h
07:00 1.8 °C 0.2 °C 1.8 °C 89% 1003.8 hPa 0 W/m² 0.0 mm 0.000 mm 4.6 km/h
07:05 1.8 °C 0.2 °C 1.8 °C 89% 1004.0 hPa 0 W/m² 0.0 mm 0.000 mm 4.6 km/h
07:10 1.7 °C 0.1 °C 1.7 °C 89% 1004.0 hPa 0 W/m² 0.0 mm 0.000 mm 4.3 km/h
07:15 1.7 °C 0.1 °C 1.7 °C 89% 1004.1 hPa 0 W/m² 0.0 mm 0.000 mm 2.6 km/h
07:20 1.7 °C 0.1 °C 1.7 °C 89% 1004.0 hPa 0 W/m² 0.0 mm 0.000 mm 3.7 km/h
07:25 1.7 °C 0.1 °C 1.7 °C 89% 1003.9 hPa 0 W/m² 0.0 mm 0.000 mm 5.7 km/h
07:30 1.7 °C 0.1 °C 1.7 °C 89% 1004.0 hPa 0 W/m² 0.0 mm 0.000 mm 3.4 km/h
07:35 1.6 °C -0.0 °C 1.6 °C 89% 1004.1 hPa 0 W/m² 0.0 mm 0.000 mm 3.4 km/h
07:40 1.6 °C -0.0 °C 1.6 °C 89% 1004.1 hPa 0 W/m² 0.0 mm 0.000 mm 3.1 km/h
07:45 1.5 °C -0.1 °C 1.5 °C 89% 1004.0 hPa 0 W/m² 0.0 mm 0.000 mm 1.1 km/h
07:50 1.4 °C -0.2 °C 1.4 °C 89% 1004.1 hPa 0 W/m² 0.0 mm 0.000 mm 0.0 km/h
07:55 1.3 °C -0.3 °C 1.3 °C 89% 1004.1 hPa 0 W/m² 0.0 mm 0.000 mm 0.0 km/h
08:00 1.3 °C -0.2 °C 1.3 °C 90% 1004.2 hPa 0 W/m² 0.0 mm 0.000 mm 0.2 km/h
08:05 1.2 °C -0.4 °C 1.2 °C 89% 1004.4 hPa 0 W/m² 0.0 mm 0.000 mm 2.6 km/h
08:10 1.2 °C -0.3 °C 1.2 °C 90% 1004.3 hPa 0 W/m² 0.0 mm 0.000 mm 2.0 km/h
08:15 1.2 °C -0.3 °C 1.2 °C 90% 1004.4 hPa 5 W/m² 0.0 mm 0.000 mm 1.8 km/h
08:20 1.3 °C -0.2 °C 1.3 °C 90% 1004.3 hPa 5 W/m² 0.0 mm 0.000 mm 2.5 km/h